Aérodrome :
LOGIN :

S'inscrire | Disclaimer

   EN    FR    IT 

 










Légende :    VFR   VFR Marginal   IFR   IFR Intensif   IFR Très Intensif
Visi : 
Plafond : 
>= 8 km
>= 3000ft
5 à 8 km
1000 à 3000 ft
1500m à 5 km
500 à 1000 ft
800 à 1500m
200 à 500 ft
< 800m
< 200 ft
Symboles :   Orages  Brouillard  Fortes neiges  Fortes précipitations  Vent > 20 kt
SIGMETs :   Divers  Orages  Givrage  Turbulence  Onde Orograph.  Cendres Volcan.






- Altitude de l'aérodrome : 74 ft
- Code IATA : MRS


LFML - Marseille / Marignane

DERNIER METAR :
  • 050130Z AUTO 34006KT CAVOK 20/16 Q1013 BECMG 28012KT

METARs EXPIRÉS :
  • 050100Z AUTO 33004KT 270V020 CAVOK 20/16 Q1013 NOSIG
  • 050030Z AUTO 33007KT 300V360 CAVOK 20/16 Q1013 NOSIG
  • 050000Z AUTO 32007KT CAVOK 20/17 Q1013 NOSIG
  • 042330Z AUTO 30012KT CAVOK 20/17 Q1014 NOSIG
  • 042300Z AUTO 30010KT CAVOK 21/18 Q1014 NOSIG

TAF TAF LFML
Valide du 04 à 21h jusqu'au 06 à 03h UTC


042000Z 0421/0603 28012KT CAVOK TX27/0514Z TN18/0503Z
BECMG 0520/0522 VRB02KT
ATIS : +33 4 42 31 15 15



MET'MAP, la Météo Aéronautique d'un coup d'oeil ! - Copyright ORBIFLY Décembre 2007 - Disclaimer

ORBIFLY MET'MAP TEAM :

Programmation & Développement : Alexandra Zaïnal
Sur une idée originale de : Baudouin d'Aumeries
Assistance à la programmation : Marc-Olivier Méhu
Soutien technique & logistique : Manuel Goepfert

Contact : metmap@orbifly.com




SOURCES & CREDITS :

   NOAA